sensor_id;sensor_type;location;lat;lon;timestamp;P1;durP1;ratioP1;P2;durP2;ratioP2
20671;SDS011;10495;50.922;4.760;2023-01-10T00:01:25;7.00;;;2.17;;
20671;SDS011;10495;50.922;4.760;2023-01-10T00:03:51;6.27;;;2.70;;
20671;SDS011;10495;50.922;4.760;2023-01-10T00:06:16;13.13;;;2.57;;
20671;SDS011;10495;50.922;4.760;2023-01-10T00:08:42;7.03;;;2.30;;
20671;SDS011;10495;50.922;4.760;2023-01-10T00:11:08;7.00;;;2.27;;
20671;SDS011;10495;50.922;4.760;2023-01-10T00:13:56;6.60;;;2.40;;
20671;SDS011;10495;50.922;4.760;2023-01-10T00:16:22;7.40;;;2.23;;
20671;SDS011;10495;50.922;4.760;2023-01-10T00:18:48;6.93;;;2.43;;
20671;SDS011;10495;50.922;4.760;2023-01-10T00:21:13;9.00;;;2.80;;
20671;SDS011;10495;50.922;4.760;2023-01-10T00:23:40;7.67;;;2.50;;
20671;SDS011;10495;50.922;4.760;2023-01-10T00:26:07;15.37;;;3.97;;
20671;SDS011;10495;50.922;4.760;2023-01-10T00:28:33;13.83;;;3.10;;
20671;SDS011;10495;50.922;4.760;2023-01-10T00:30:59;11.43;;;3.43;;
20671;SDS011;10495;50.922;4.760;2023-01-10T00:33:25;8.97;;;2.70;;
20671;SDS011;10495;50.922;4.760;2023-01-10T00:35:55;9.37;;;3.77;;
20671;SDS011;10495;50.922;4.760;2023-01-10T00:38:21;5.67;;;2.47;;
20671;SDS011;10495;50.922;4.760;2023-01-10T00:40:47;17.90;;;3.70;;
20671;SDS011;10495;50.922;4.760;2023-01-10T00:43:13;9.83;;;2.93;;
20671;SDS011;10495;50.922;4.760;2023-01-10T00:45:57;15.33;;;3.30;;
20671;SDS011;10495;50.922;4.760;2023-01-10T00:48:23;11.60;;;4.30;;
20671;SDS011;10495;50.922;4.760;2023-01-10T00:50:48;10.97;;;2.97;;
20671;SDS011;10495;50.922;4.760;2023-01-10T00:53:14;10.07;;;2.87;;
20671;SDS011;10495;50.922;4.760;2023-01-10T00:55:40;9.97;;;3.03;;
20671;SDS011;10495;50.922;4.760;2023-01-10T00:58:05;8.80;;;3.27;;
20671;SDS011;10495;50.922;4.760;2023-01-10T01:00:35;9.67;;;3.67;;
20671;SDS011;10495;50.922;4.760;2023-01-10T01:03:00;9.27;;;3.10;;
20671;SDS011;10495;50.922;4.760;2023-01-10T01:05:26;12.60;;;3.03;;
20671;SDS011;10495;50.922;4.760;2023-01-10T01:07:52;12.53;;;3.10;;
20671;SDS011;10495;50.922;4.760;2023-01-10T01:10:18;14.43;;;3.40;;
20671;SDS011;10495;50.922;4.760;2023-01-10T01:12:53;7.80;;;2.70;;
20671;SDS011;10495;50.922;4.760;2023-01-10T01:15:39;12.13;;;3.23;;
20671;SDS011;10495;50.922;4.760;2023-01-10T01:18:05;12.83;;;3.00;;
20671;SDS011;10495;50.922;4.760;2023-01-10T01:20:31;9.47;;;3.13;;
20671;SDS011;10495;50.922;4.760;2023-01-10T01:22:57;9.50;;;2.83;;
20671;SDS011;10495;50.922;4.760;2023-01-10T01:25:22;11.73;;;3.80;;
20671;SDS011;10495;50.922;4.760;2023-01-10T01:27:48;12.63;;;2.87;;
20671;SDS011;10495;50.922;4.760;2023-01-10T01:30:14;10.70;;;2.83;;
20671;SDS011;10495;50.922;4.760;2023-01-10T01:32:39;9.03;;;2.47;;
20671;SDS011;10495;50.922;4.760;2023-01-10T01:35:06;9.90;;;3.30;;
20671;SDS011;10495;50.922;4.760;2023-01-10T01:37:33;11.30;;;2.97;;
20671;SDS011;10495;50.922;4.760;2023-01-10T01:39:58;7.40;;;2.50;;
20671;SDS011;10495;50.922;4.760;2023-01-10T01:50:20;11.27;;;3.07;;
20671;SDS011;10495;50.922;4.760;2023-01-10T01:52:50;10.17;;;2.67;;
20671;SDS011;10495;50.922;4.760;2023-01-10T01:55:18;9.73;;;2.87;;
20671;SDS011;10495;50.922;4.760;2023-01-10T01:57:45;10.77;;;3.37;;
20671;SDS011;10495;50.922;4.760;2023-01-10T02:00:14;10.17;;;3.23;;
20671;SDS011;10495;50.922;4.760;2023-01-10T02:02:42;9.67;;;3.00;;
20671;SDS011;10495;50.922;4.760;2023-01-10T02:05:21;15.83;;;2.70;;
20671;SDS011;10495;50.922;4.760;2023-01-10T02:07:53;10.77;;;3.27;;
20671;SDS011;10495;50.922;4.760;2023-01-10T02:10:23;17.17;;;3.17;;
20671;SDS011;10495;50.922;4.760;2023-01-10T02:13:15;10.17;;;2.30;;
20671;SDS011;10495;50.922;4.760;2023-01-10T02:15:43;9.10;;;2.30;;
20671;SDS011;10495;50.922;4.760;2023-01-10T02:18:08;11.17;;;2.90;;
20671;SDS011;10495;50.922;4.760;2023-01-10T02:20:37;10.33;;;2.63;;
20671;SDS011;10495;50.922;4.760;2023-01-10T02:23:43;7.10;;;2.30;;
20671;SDS011;10495;50.922;4.760;2023-01-10T02:43:13;16.03;;;3.30;;
20671;SDS011;10495;50.922;4.760;2023-01-10T02:48:34;12.17;;;3.20;;
20671;SDS011;10495;50.922;4.760;2023-01-10T02:51:08;15.10;;;3.00;;
20671;SDS011;10495;50.922;4.760;2023-01-10T02:53:44;5.90;;;2.43;;
20671;SDS011;10495;50.922;4.760;2023-01-10T03:01:53;13.73;;;3.57;;
20671;SDS011;10495;50.922;4.760;2023-01-10T03:04:32;12.47;;;2.53;;
20671;SDS011;10495;50.922;4.760;2023-01-10T03:07:27;8.13;;;2.37;;
20671;SDS011;10495;50.922;4.760;2023-01-10T03:12:34;11.60;;;2.87;;
20671;SDS011;10495;50.922;4.760;2023-01-10T03:15:26;13.10;;;2.60;;
20671;SDS011;10495;50.922;4.760;2023-01-10T03:17:56;9.87;;;2.43;;
20671;SDS011;10495;50.922;4.760;2023-01-10T03:20:25;13.33;;;3.50;;
20671;SDS011;10495;50.922;4.760;2023-01-10T03:22:52;13.47;;;2.57;;
20671;SDS011;10495;50.922;4.760;2023-01-10T03:25:20;8.33;;;2.63;;
20671;SDS011;10495;50.922;4.760;2023-01-10T03:27:57;12.17;;;3.23;;
20671;SDS011;10495;50.922;4.760;2023-01-10T03:33:27;13.63;;;3.00;;
20671;SDS011;10495;50.922;4.760;2023-01-10T03:41:11;13.67;;;3.67;;
20671;SDS011;10495;50.922;4.760;2023-01-10T03:43:44;13.37;;;3.10;;
20671;SDS011;10495;50.922;4.760;2023-01-10T03:49:33;12.97;;;2.93;;
20671;SDS011;10495;50.922;4.760;2023-01-10T03:52:01;11.83;;;3.27;;
20671;SDS011;10495;50.922;4.760;2023-01-10T03:54:29;10.20;;;3.43;;
20671;SDS011;10495;50.922;4.760;2023-01-10T03:56:54;17.43;;;3.33;;
20671;SDS011;10495;50.922;4.760;2023-01-10T03:59:21;15.87;;;3.90;;
20671;SDS011;10495;50.922;4.760;2023-01-10T04:01:50;14.50;;;3.63;;
20671;SDS011;10495;50.922;4.760;2023-01-10T04:04:17;21.07;;;3.43;;
20671;SDS011;10495;50.922;4.760;2023-01-10T04:06:42;14.37;;;3.10;;
20671;SDS011;10495;50.922;4.760;2023-01-10T04:09:08;12.60;;;3.97;;
20671;SDS011;10495;50.922;4.760;2023-01-10T04:11:34;12.97;;;3.17;;
20671;SDS011;10495;50.922;4.760;2023-01-10T04:14:00;16.57;;;3.67;;
20671;SDS011;10495;50.922;4.760;2023-01-10T04:16:25;8.77;;;2.63;;
20671;SDS011;10495;50.922;4.760;2023-01-10T04:18:51;14.07;;;2.90;;
20671;SDS011;10495;50.922;4.760;2023-01-10T04:21:17;12.53;;;2.80;;
20671;SDS011;10495;50.922;4.760;2023-01-10T04:23:42;8.40;;;2.57;;
20671;SDS011;10495;50.922;4.760;2023-01-10T04:26:08;17.57;;;2.77;;
20671;SDS011;10495;50.922;4.760;2023-01-10T04:28:34;18.00;;;3.30;;
20671;SDS011;10495;50.922;4.760;2023-01-10T04:31:00;15.93;;;3.23;;
20671;SDS011;10495;50.922;4.760;2023-01-10T04:33:25;12.30;;;3.03;;
20671;SDS011;10495;50.922;4.760;2023-01-10T04:35:52;9.27;;;2.83;;
20671;SDS011;10495;50.922;4.760;2023-01-10T04:38:18;10.17;;;3.23;;
20671;SDS011;10495;50.922;4.760;2023-01-10T04:40:44;13.47;;;3.27;;
20671;SDS011;10495;50.922;4.760;2023-01-10T04:43:15;15.93;;;3.13;;
20671;SDS011;10495;50.922;4.760;2023-01-10T04:45:42;12.70;;;3.20;;
20671;SDS011;10495;50.922;4.760;2023-01-10T04:48:07;13.93;;;3.57;;
20671;SDS011;10495;50.922;4.760;2023-01-10T04:50:34;17.27;;;3.23;;
20671;SDS011;10495;50.922;4.760;2023-01-10T04:52:59;10.43;;;3.50;;
20671;SDS011;10495;50.922;4.760;2023-01-10T04:55:25;17.17;;;3.80;;
20671;SDS011;10495;50.922;4.760;2023-01-10T04:57:51;14.23;;;4.03;;
20671;SDS011;10495;50.922;4.760;2023-01-10T05:00:16;15.23;;;3.43;;
20671;SDS011;10495;50.922;4.760;2023-01-10T05:02:42;20.07;;;3.20;;
20671;SDS011;10495;50.922;4.760;2023-01-10T05:05:14;15.37;;;3.07;;
20671;SDS011;10495;50.922;4.760;2023-01-10T05:07:39;9.53;;;3.03;;
20671;SDS011;10495;50.922;4.760;2023-01-10T05:10:06;12.30;;;2.57;;
20671;SDS011;10495;50.922;4.760;2023-01-10T05:12:32;12.53;;;2.90;;
20671;SDS011;10495;50.922;4.760;2023-01-10T05:14:58;8.13;;;2.33;;
20671;SDS011;10495;50.922;4.760;2023-01-10T05:17:24;9.63;;;2.67;;
20671;SDS011;10495;50.922;4.760;2023-01-10T05:19:50;17.40;;;3.53;;
20671;SDS011;10495;50.922;4.760;2023-01-10T05:22:16;12.73;;;3.33;;
20671;SDS011;10495;50.922;4.760;2023-01-10T05:24:41;8.70;;;3.20;;
20671;SDS011;10495;50.922;4.760;2023-01-10T05:27:07;17.33;;;3.43;;
20671;SDS011;10495;50.922;4.760;2023-01-10T05:29:32;15.13;;;2.80;;
20671;SDS011;10495;50.922;4.760;2023-01-10T05:31:58;13.73;;;3.40;;
20671;SDS011;10495;50.922;4.760;2023-01-10T05:34:24;15.07;;;2.97;;
20671;SDS011;10495;50.922;4.760;2023-01-10T05:36:50;13.17;;;2.67;;
20671;SDS011;10495;50.922;4.760;2023-01-10T05:39:15;14.33;;;3.20;;
20671;SDS011;10495;50.922;4.760;2023-01-10T05:41:41;16.13;;;3.40;;
20671;SDS011;10495;50.922;4.760;2023-01-10T05:44:07;13.60;;;3.33;;
20671;SDS011;10495;50.922;4.760;2023-01-10T05:46:32;13.67;;;3.30;;
20671;SDS011;10495;50.922;4.760;2023-01-10T05:48:58;9.50;;;2.90;;
20671;SDS011;10495;50.922;4.760;2023-01-10T05:51:24;18.20;;;3.10;;
20671;SDS011;10495;50.922;4.760;2023-01-10T05:53:50;16.73;;;2.63;;
20671;SDS011;10495;50.922;4.760;2023-01-10T05:56:15;11.83;;;3.83;;
20671;SDS011;10495;50.922;4.760;2023-01-10T05:58:41;10.37;;;3.13;;
20671;SDS011;10495;50.922;4.760;2023-01-10T06:01:06;11.10;;;3.17;;
20671;SDS011;10495;50.922;4.760;2023-01-10T06:03:33;15.37;;;3.17;;
20671;SDS011;10495;50.922;4.760;2023-01-10T06:05:58;12.87;;;3.23;;
20671;SDS011;10495;50.922;4.760;2023-01-10T06:08:24;14.37;;;3.13;;
20671;SDS011;10495;50.922;4.760;2023-01-10T06:10:50;20.70;;;3.80;;
20671;SDS011;10495;50.922;4.760;2023-01-10T06:13:16;9.90;;;3.10;;
20671;SDS011;10495;50.922;4.760;2023-01-10T06:15:41;11.27;;;3.17;;
20671;SDS011;10495;50.922;4.760;2023-01-10T06:18:07;15.63;;;4.03;;
20671;SDS011;10495;50.922;4.760;2023-01-10T06:20:33;18.07;;;3.47;;
20671;SDS011;10495;50.922;4.760;2023-01-10T06:22:59;10.70;;;3.13;;
20671;SDS011;10495;50.922;4.760;2023-01-10T06:25:28;14.07;;;3.30;;
20671;SDS011;10495;50.922;4.760;2023-01-10T06:27:59;9.13;;;3.10;;
20671;SDS011;10495;50.922;4.760;2023-01-10T06:30:25;15.07;;;3.03;;
20671;SDS011;10495;50.922;4.760;2023-01-10T06:32:51;14.47;;;3.13;;
20671;SDS011;10495;50.922;4.760;2023-01-10T06:35:16;15.43;;;3.30;;
20671;SDS011;10495;50.922;4.760;2023-01-10T06:37:42;10.50;;;3.23;;
20671;SDS011;10495;50.922;4.760;2023-01-10T06:40:08;9.30;;;2.80;;
20671;SDS011;10495;50.922;4.760;2023-01-10T06:42:34;11.87;;;2.83;;
20671;SDS011;10495;50.922;4.760;2023-01-10T06:45:00;15.13;;;2.77;;
20671;SDS011;10495;50.922;4.760;2023-01-10T06:47:26;12.80;;;2.67;;
20671;SDS011;10495;50.922;4.760;2023-01-10T06:49:51;12.63;;;3.20;;
20671;SDS011;10495;50.922;4.760;2023-01-10T06:52:17;18.37;;;3.57;;
20671;SDS011;10495;50.922;4.760;2023-01-10T06:54:43;15.10;;;3.17;;
20671;SDS011;10495;50.922;4.760;2023-01-10T06:57:08;16.13;;;3.07;;
20671;SDS011;10495;50.922;4.760;2023-01-10T06:59:34;13.73;;;3.30;;
20671;SDS011;10495;50.922;4.760;2023-01-10T07:01:59;10.43;;;3.03;;
20671;SDS011;10495;50.922;4.760;2023-01-10T07:04:25;14.00;;;3.50;;
20671;SDS011;10495;50.922;4.760;2023-01-10T07:06:51;11.03;;;2.87;;
20671;SDS011;10495;50.922;4.760;2023-01-10T07:09:17;13.43;;;3.33;;
20671;SDS011;10495;50.922;4.760;2023-01-10T07:11:43;7.63;;;2.80;;
20671;SDS011;10495;50.922;4.760;2023-01-10T07:14:08;10.13;;;2.73;;
20671;SDS011;10495;50.922;4.760;2023-01-10T07:16:34;16.23;;;3.53;;
20671;SDS011;10495;50.922;4.760;2023-01-10T07:19:00;18.83;;;3.40;;
20671;SDS011;10495;50.922;4.760;2023-01-10T07:21:26;13.00;;;3.33;;
20671;SDS011;10495;50.922;4.760;2023-01-10T07:23:52;9.47;;;3.07;;
20671;SDS011;10495;50.922;4.760;2023-01-10T07:26:18;13.37;;;3.00;;
20671;SDS011;10495;50.922;4.760;2023-01-10T07:28:46;11.33;;;2.90;;
20671;SDS011;10495;50.922;4.760;2023-01-10T07:31:16;17.00;;;3.23;;
20671;SDS011;10495;50.922;4.760;2023-01-10T07:33:43;17.00;;;3.27;;
20671;SDS011;10495;50.922;4.760;2023-01-10T07:36:08;10.33;;;2.80;;
20671;SDS011;10495;50.922;4.760;2023-01-10T07:38:34;15.60;;;3.67;;
20671;SDS011;10495;50.922;4.760;2023-01-10T07:41:01;11.77;;;2.73;;
20671;SDS011;10495;50.922;4.760;2023-01-10T07:43:27;14.07;;;3.07;;
20671;SDS011;10495;50.922;4.760;2023-01-10T07:45:53;11.90;;;3.07;;
20671;SDS011;10495;50.922;4.760;2023-01-10T07:48:21;15.43;;;3.40;;
20671;SDS011;10495;50.922;4.760;2023-01-10T07:50:47;14.70;;;3.23;;
20671;SDS011;10495;50.922;4.760;2023-01-10T07:53:12;13.50;;;2.67;;
20671;SDS011;10495;50.922;4.760;2023-01-10T07:55:38;10.73;;;3.13;;
20671;SDS011;10495;50.922;4.760;2023-01-10T07:58:04;13.13;;;3.67;;
20671;SDS011;10495;50.922;4.760;2023-01-10T08:00:34;20.10;;;3.90;;
20671;SDS011;10495;50.922;4.760;2023-01-10T08:03:00;22.07;;;4.10;;
20671;SDS011;10495;50.922;4.760;2023-01-10T08:05:25;12.83;;;3.63;;
20671;SDS011;10495;50.922;4.760;2023-01-10T08:07:51;18.67;;;5.13;;
20671;SDS011;10495;50.922;4.760;2023-01-10T08:10:17;16.07;;;4.20;;
20671;SDS011;10495;50.922;4.760;2023-01-10T08:12:43;22.17;;;3.83;;
20671;SDS011;10495;50.922;4.760;2023-01-10T08:15:08;17.17;;;3.90;;
20671;SDS011;10495;50.922;4.760;2023-01-10T08:17:34;13.60;;;2.83;;
20671;SDS011;10495;50.922;4.760;2023-01-10T08:20:01;11.97;;;3.20;;
20671;SDS011;10495;50.922;4.760;2023-01-10T08:22:27;14.87;;;2.93;;
20671;SDS011;10495;50.922;4.760;2023-01-10T08:24:53;15.93;;;3.70;;
20671;SDS011;10495;50.922;4.760;2023-01-10T08:27:18;14.60;;;3.53;;
20671;SDS011;10495;50.922;4.760;2023-01-10T08:29:44;12.10;;;4.23;;
20671;SDS011;10495;50.922;4.760;2023-01-10T08:32:10;14.67;;;3.83;;
20671;SDS011;10495;50.922;4.760;2023-01-10T08:34:36;15.27;;;3.03;;
20671;SDS011;10495;50.922;4.760;2023-01-10T08:37:01;16.83;;;3.93;;
20671;SDS011;10495;50.922;4.760;2023-01-10T08:39:28;15.90;;;3.93;;
20671;SDS011;10495;50.922;4.760;2023-01-10T08:41:54;14.93;;;4.00;;
20671;SDS011;10495;50.922;4.760;2023-01-10T08:44:20;12.97;;;3.57;;
20671;SDS011;10495;50.922;4.760;2023-01-10T08:46:46;8.83;;;3.60;;
20671;SDS011;10495;50.922;4.760;2023-01-10T08:49:11;18.43;;;4.03;;
20671;SDS011;10495;50.922;4.760;2023-01-10T08:51:38;13.07;;;4.10;;
20671;SDS011;10495;50.922;4.760;2023-01-10T08:54:03;16.80;;;3.80;;
20671;SDS011;10495;50.922;4.760;2023-01-10T08:56:29;12.53;;;4.00;;
20671;SDS011;10495;50.922;4.760;2023-01-10T08:58:54;14.10;;;4.10;;
20671;SDS011;10495;50.922;4.760;2023-01-10T09:01:20;15.93;;;4.77;;
20671;SDS011;10495;50.922;4.760;2023-01-10T09:03:46;11.43;;;3.43;;
20671;SDS011;10495;50.922;4.760;2023-01-10T09:06:12;8.80;;;3.17;;
20671;SDS011;10495;50.922;4.760;2023-01-10T09:08:37;16.27;;;4.53;;
20671;SDS011;10495;50.922;4.760;2023-01-10T09:11:03;15.87;;;4.50;;
20671;SDS011;10495;50.922;4.760;2023-01-10T09:13:30;16.23;;;3.50;;
20671;SDS011;10495;50.922;4.760;2023-01-10T09:15:58;11.60;;;4.10;;
20671;SDS011;10495;50.922;4.760;2023-01-10T09:18:23;18.47;;;4.10;;
20671;SDS011;10495;50.922;4.760;2023-01-10T09:20:49;15.23;;;3.50;;
20671;SDS011;10495;50.922;4.760;2023-01-10T09:23:17;12.20;;;3.37;;
20671;SDS011;10495;50.922;4.760;2023-01-10T09:25:45;14.20;;;3.93;;
20671;SDS011;10495;50.922;4.760;2023-01-10T09:28:11;14.77;;;3.63;;
20671;SDS011;10495;50.922;4.760;2023-01-10T09:30:37;14.83;;;3.43;;
20671;SDS011;10495;50.922;4.760;2023-01-10T09:33:03;17.57;;;4.20;;
20671;SDS011;10495;50.922;4.760;2023-01-10T09:35:30;11.93;;;3.63;;
20671;SDS011;10495;50.922;4.760;2023-01-10T09:37:59;12.40;;;3.43;;
20671;SDS011;10495;50.922;4.760;2023-01-10T09:52:06;10.50;;;3.30;;
20671;SDS011;10495;50.922;4.760;2023-01-10T09:54:44;8.73;;;3.07;;
20671;SDS011;10495;50.922;4.760;2023-01-10T09:57:19;15.00;;;3.67;;
20671;SDS011;10495;50.922;4.760;2023-01-10T09:59:46;17.63;;;3.73;;
20671;SDS011;10495;50.922;4.760;2023-01-10T10:07:37;14.60;;;3.07;;
20671;SDS011;10495;50.922;4.760;2023-01-10T10:10:04;14.00;;;4.37;;
20671;SDS011;10495;50.922;4.760;2023-01-10T10:15:19;16.17;;;4.93;;
20671;SDS011;10495;50.922;4.760;2023-01-10T10:18:15;16.83;;;4.40;;
20671;SDS011;10495;50.922;4.760;2023-01-10T10:23:37;13.77;;;3.50;;
20671;SDS011;10495;50.922;4.760;2023-01-10T10:26:07;18.43;;;3.57;;
20671;SDS011;10495;50.922;4.760;2023-01-10T10:34:18;14.37;;;3.93;;
20671;SDS011;10495;50.922;4.760;2023-01-10T10:39:16;11.33;;;2.80;;
20671;SDS011;10495;50.922;4.760;2023-01-10T10:41:45;17.60;;;4.33;;
20671;SDS011;10495;50.922;4.760;2023-01-10T10:44:22;12.20;;;3.43;;
20671;SDS011;10495;50.922;4.760;2023-01-10T10:46:51;14.03;;;3.33;;
20671;SDS011;10495;50.922;4.760;2023-01-10T10:49:17;15.20;;;3.47;;
20671;SDS011;10495;50.922;4.760;2023-01-10T10:52:22;16.00;;;3.40;;
20671;SDS011;10495;50.922;4.760;2023-01-10T10:54:49;16.07;;;3.70;;
20671;SDS011;10495;50.922;4.760;2023-01-10T10:57:15;14.23;;;3.90;;
20671;SDS011;10495;50.922;4.760;2023-01-10T10:59:43;20.10;;;4.20;;
20671;SDS011;10495;50.922;4.760;2023-01-10T11:02:19;12.53;;;3.17;;
20671;SDS011;10495;50.922;4.760;2023-01-10T11:04:48;13.07;;;3.37;;
20671;SDS011;10495;50.922;4.760;2023-01-10T11:07:16;14.87;;;4.57;;
20671;SDS011;10495;50.922;4.760;2023-01-10T11:09:43;18.60;;;3.77;;
20671;SDS011;10495;50.922;4.760;2023-01-10T11:12:20;19.47;;;5.03;;
20671;SDS011;10495;50.922;4.760;2023-01-10T11:14:51;14.47;;;3.67;;
20671;SDS011;10495;50.922;4.760;2023-01-10T11:17:18;9.30;;;3.90;;
20671;SDS011;10495;50.922;4.760;2023-01-10T11:19:57;22.50;;;4.43;;
20671;SDS011;10495;50.922;4.760;2023-01-10T11:22:46;14.20;;;4.53;;
20671;SDS011;10495;50.922;4.760;2023-01-10T11:25:15;14.33;;;4.17;;
20671;SDS011;10495;50.922;4.760;2023-01-10T11:27:50;15.07;;;3.80;;
20671;SDS011;10495;50.922;4.760;2023-01-10T11:30:25;14.90;;;4.40;;
20671;SDS011;10495;50.922;4.760;2023-01-10T11:35:23;16.03;;;3.63;;
20671;SDS011;10495;50.922;4.760;2023-01-10T11:38:01;13.23;;;3.57;;
20671;SDS011;10495;50.922;4.760;2023-01-10T11:40:31;16.47;;;3.47;;
20671;SDS011;10495;50.922;4.760;2023-01-10T11:43:00;17.47;;;4.30;;
20671;SDS011;10495;50.922;4.760;2023-01-10T11:45:51;14.43;;;3.83;;
20671;SDS011;10495;50.922;4.760;2023-01-10T11:48:23;13.80;;;4.07;;
20671;SDS011;10495;50.922;4.760;2023-01-10T11:50:50;9.40;;;3.67;;
20671;SDS011;10495;50.922;4.760;2023-01-10T11:53:54;17.20;;;3.70;;
20671;SDS011;10495;50.922;4.760;2023-01-10T11:56:21;12.70;;;3.90;;
20671;SDS011;10495;50.922;4.760;2023-01-10T11:58:49;15.17;;;3.97;;
20671;SDS011;10495;50.922;4.760;2023-01-10T12:04:17;14.13;;;3.73;;
20671;SDS011;10495;50.922;4.760;2023-01-10T12:06:48;15.90;;;4.50;;
20671;SDS011;10495;50.922;4.760;2023-01-10T12:14:48;14.83;;;4.17;;
20671;SDS011;10495;50.922;4.760;2023-01-10T12:19:54;12.00;;;3.33;;
20671;SDS011;10495;50.922;4.760;2023-01-10T12:22:27;12.47;;;3.73;;
20671;SDS011;10495;50.922;4.760;2023-01-10T12:24:54;13.53;;;3.33;;
20671;SDS011;10495;50.922;4.760;2023-01-10T12:27:22;14.23;;;4.10;;
20671;SDS011;10495;50.922;4.760;2023-01-10T12:30:04;13.33;;;4.00;;
20671;SDS011;10495;50.922;4.760;2023-01-10T12:32:37;12.23;;;3.73;;
20671;SDS011;10495;50.922;4.760;2023-01-10T12:35:17;13.53;;;3.70;;
20671;SDS011;10495;50.922;4.760;2023-01-10T12:38:46;12.73;;;3.40;;
20671;SDS011;10495;50.922;4.760;2023-01-10T12:41:15;10.13;;;3.70;;
20671;SDS011;10495;50.922;4.760;2023-01-10T12:44:11;13.60;;;3.80;;
20671;SDS011;10495;50.922;4.760;2023-01-10T12:46:44;9.70;;;2.80;;
20671;SDS011;10495;50.922;4.760;2023-01-10T12:51:48;13.43;;;4.00;;
20671;SDS011;10495;50.922;4.760;2023-01-10T12:54:24;13.50;;;4.87;;
20671;SDS011;10495;50.922;4.760;2023-01-10T12:56:52;22.07;;;4.47;;
20671;SDS011;10495;50.922;4.760;2023-01-10T12:59:40;9.27;;;2.90;;
20671;SDS011;10495;50.922;4.760;2023-01-10T13:02:12;13.23;;;3.13;;
20671;SDS011;10495;50.922;4.760;2023-01-10T13:04:41;13.57;;;3.73;;
20671;SDS011;10495;50.922;4.760;2023-01-10T13:07:13;15.57;;;3.83;;
20671;SDS011;10495;50.922;4.760;2023-01-10T13:09:41;11.03;;;3.57;;
20671;SDS011;10495;50.922;4.760;2023-01-10T13:22:41;14.07;;;3.67;;
20671;SDS011;10495;50.922;4.760;2023-01-10T13:28:02;15.70;;;3.90;;
20671;SDS011;10495;50.922;4.760;2023-01-10T13:30:53;15.97;;;4.10;;
20671;SDS011;10495;50.922;4.760;2023-01-10T13:35:53;16.53;;;3.63;;
20671;SDS011;10495;50.922;4.760;2023-01-10T13:38:31;11.03;;;3.60;;
20671;SDS011;10495;50.922;4.760;2023-01-10T13:41:16;12.80;;;3.47;;
20671;SDS011;10495;50.922;4.760;2023-01-10T13:46:42;10.73;;;3.20;;
20671;SDS011;10495;50.922;4.760;2023-01-10T13:51:35;14.10;;;4.27;;
20671;SDS011;10495;50.922;4.760;2023-01-10T13:54:03;12.60;;;4.63;;
20671;SDS011;10495;50.922;4.760;2023-01-10T13:56:42;11.07;;;2.77;;
20671;SDS011;10495;50.922;4.760;2023-01-10T13:59:10;9.60;;;3.50;;
20671;SDS011;10495;50.922;4.760;2023-01-10T14:02:12;15.70;;;3.73;;
20671;SDS011;10495;50.922;4.760;2023-01-10T14:05:14;10.43;;;3.80;;
20671;SDS011;10495;50.922;4.760;2023-01-10T14:07:49;10.33;;;5.00;;
20671;SDS011;10495;50.922;4.760;2023-01-10T14:10:22;13.20;;;4.47;;
20671;SDS011;10495;50.922;4.760;2023-01-10T14:13:03;11.23;;;3.47;;
20671;SDS011;10495;50.922;4.760;2023-01-10T14:15:38;7.27;;;2.90;;
20671;SDS011;10495;50.922;4.760;2023-01-10T14:18:19;10.23;;;2.97;;
20671;SDS011;10495;50.922;4.760;2023-01-10T14:20:58;8.93;;;3.40;;
20671;SDS011;10495;50.922;4.760;2023-01-10T14:23:28;7.40;;;2.77;;
20671;SDS011;10495;50.922;4.760;2023-01-10T14:25:59;11.10;;;2.53;;
20671;SDS011;10495;50.922;4.760;2023-01-10T14:28:26;7.07;;;3.17;;
20671;SDS011;10495;50.922;4.760;2023-01-10T14:30:59;7.17;;;2.60;;
20671;SDS011;10495;50.922;4.760;2023-01-10T14:33:40;10.73;;;2.70;;
20671;SDS011;10495;50.922;4.760;2023-01-10T14:36:08;9.53;;;2.30;;
20671;SDS011;10495;50.922;4.760;2023-01-10T14:38:44;8.40;;;2.60;;
20671;SDS011;10495;50.922;4.760;2023-01-10T14:41:20;7.77;;;2.53;;
20671;SDS011;10495;50.922;4.760;2023-01-10T14:43:54;12.87;;;2.40;;
20671;SDS011;10495;50.922;4.760;2023-01-10T14:51:48;4.73;;;2.10;;
20671;SDS011;10495;50.922;4.760;2023-01-10T14:54:15;8.33;;;2.37;;
20671;SDS011;10495;50.922;4.760;2023-01-10T14:56:50;6.33;;;1.97;;
20671;SDS011;10495;50.922;4.760;2023-01-10T14:59:17;9.33;;;2.40;;
20671;SDS011;10495;50.922;4.760;2023-01-10T15:01:52;5.90;;;2.40;;
20671;SDS011;10495;50.922;4.760;2023-01-10T15:04:28;8.63;;;2.70;;
20671;SDS011;10495;50.922;4.760;2023-01-10T15:06:57;8.57;;;2.90;;
20671;SDS011;10495;50.922;4.760;2023-01-10T15:09:26;7.23;;;2.23;;
20671;SDS011;10495;50.922;4.760;2023-01-10T15:11:53;4.23;;;2.27;;
20671;SDS011;10495;50.922;4.760;2023-01-10T15:14:21;5.87;;;2.93;;
20671;SDS011;10495;50.922;4.760;2023-01-10T15:16:50;8.37;;;2.53;;
20671;SDS011;10495;50.922;4.760;2023-01-10T15:19:21;5.27;;;2.23;;
20671;SDS011;10495;50.922;4.760;2023-01-10T15:21:48;6.60;;;2.33;;
20671;SDS011;10495;50.922;4.760;2023-01-10T15:26:59;5.27;;;1.80;;
20671;SDS011;10495;50.922;4.760;2023-01-10T15:29:27;5.13;;;1.60;;
20671;SDS011;10495;50.922;4.760;2023-01-10T15:31:54;5.70;;;1.63;;
20671;SDS011;10495;50.922;4.760;2023-01-10T15:34:30;6.33;;;1.90;;
20671;SDS011;10495;50.922;4.760;2023-01-10T15:36:56;4.70;;;1.53;;
20671;SDS011;10495;50.922;4.760;2023-01-10T15:39:26;3.37;;;1.50;;
20671;SDS011;10495;50.922;4.760;2023-01-10T15:41:57;3.10;;;1.17;;
20671;SDS011;10495;50.922;4.760;2023-01-10T15:52:50;2.87;;;1.10;;
20671;SDS011;10495;50.922;4.760;2023-01-10T15:55:34;3.73;;;1.47;;
20671;SDS011;10495;50.922;4.760;2023-01-10T16:00:36;1.50;;;1.07;;
20671;SDS011;10495;50.922;4.760;2023-01-10T16:03:19;3.00;;;1.20;;
20671;SDS011;10495;50.922;4.760;2023-01-10T16:05:52;3.37;;;1.60;;
20671;SDS011;10495;50.922;4.760;2023-01-10T16:08:23;2.07;;;1.40;;
20671;SDS011;10495;50.922;4.760;2023-01-10T16:10:54;2.27;;;1.40;;
20671;SDS011;10495;50.922;4.760;2023-01-10T16:13:25;3.50;;;1.20;;
20671;SDS011;10495;50.922;4.760;2023-01-10T16:15:51;2.83;;;1.20;;
20671;SDS011;10495;50.922;4.760;2023-01-10T16:18:17;2.20;;;1.40;;
20671;SDS011;10495;50.922;4.760;2023-01-10T16:20:43;2.50;;;1.37;;
20671;SDS011;10495;50.922;4.760;2023-01-10T16:23:15;1.50;;;1.23;;
20671;SDS011;10495;50.922;4.760;2023-01-10T16:25:43;1.83;;;1.50;;
20671;SDS011;10495;50.922;4.760;2023-01-10T16:28:17;3.33;;;1.90;;
20671;SDS011;10495;50.922;4.760;2023-01-10T16:30:44;1.13;;;1.00;;
20671;SDS011;10495;50.922;4.760;2023-01-10T16:33:14;1.57;;;0.93;;
20671;SDS011;10495;50.922;4.760;2023-01-10T16:35:45;1.80;;;1.13;;
20671;SDS011;10495;50.922;4.760;2023-01-10T16:38:11;1.47;;;1.10;;
20671;SDS011;10495;50.922;4.760;2023-01-10T16:43:13;2.17;;;1.20;;
20671;SDS011;10495;50.922;4.760;2023-01-10T16:45:48;1.40;;;0.90;;
20671;SDS011;10495;50.922;4.760;2023-01-10T16:48:19;0.97;;;0.90;;
20671;SDS011;10495;50.922;4.760;2023-01-10T16:50:45;1.33;;;1.00;;
20671;SDS011;10495;50.922;4.760;2023-01-10T16:53:13;3.60;;;1.30;;
20671;SDS011;10495;50.922;4.760;2023-01-10T16:55:41;1.60;;;1.07;;
20671;SDS011;10495;50.922;4.760;2023-01-10T16:58:11;0.80;;;0.80;;
20671;SDS011;10495;50.922;4.760;2023-01-10T17:00:38;2.57;;;1.33;;
20671;SDS011;10495;50.922;4.760;2023-01-10T17:03:27;2.40;;;1.00;;
20671;SDS011;10495;50.922;4.760;2023-01-10T17:05:52;1.73;;;1.17;;
20671;SDS011;10495;50.922;4.760;2023-01-10T17:08:19;1.77;;;1.27;;
20671;SDS011;10495;50.922;4.760;2023-01-10T17:10:49;2.63;;;1.23;;